Howard Landing, California
Current Conditions -  °F | °C
As of 4:58 AM on Sunday 23 Nov 2014 (Local Time) from KSUU Reporting Station
Clear Clear  
Wind Chill: 43°   Ceiling: Unl
Heat Index: 43°   Visibility: 10mi
Dew Point: 43°   Wind: 2mph
Humidity: 100%   Direction: 300°WNW
Pressure: 30.27"   Gusts: NA
Location:  38.2298°N, 121.579°W
Report Text: KSUU 231258Z AUTO 30002KT 10SM CLR 06/06 A3027 RMK AO2 SLP257 T00610061 $
Loading
Personal Weather Stations






























Interactive Weather Map New forecast layout! Learn more

10-Day Weather Forecast

Advertisements
Track Severe Weather on mobile